createdAt,value
2018-12-16T00:00:50.999Z,72.14
2018-12-16T00:01:54.887Z,72.19
2018-12-16T00:02:58.937Z,72.12
2018-12-16T00:04:01.725Z,71.95
2018-12-16T00:05:04.729Z,71.85
2018-12-16T00:06:08.029Z,72.29
2018-12-16T00:07:10.985Z,72.24
2018-12-16T00:08:14.354Z,71.90
2018-12-16T00:09:17.273Z,72.72
2018-12-16T00:10:19.999Z,72.48
2018-12-16T00:11:23.360Z,72.05
2018-12-16T00:12:27.418Z,72.32
2018-12-16T00:13:30.774Z,71.72
2018-12-16T00:14:34.643Z,71.69
2018-12-16T00:15:39.722Z,71.90
2018-12-16T00:16:43.947Z,71.70
2018-12-16T00:17:47.624Z,72.33
2018-12-16T00:18:51.792Z,71.77
2018-12-16T00:19:55.094Z,71.70
2018-12-16T00:20:58.405Z,71.79
2018-12-16T00:22:01.315Z,72.23
2018-12-16T00:23:04.334Z,72.14
2018-12-16T00:24:08.347Z,72.35
2018-12-16T00:25:11.654Z,71.82
2018-12-16T00:26:14.747Z,72.04
2018-12-16T00:27:17.639Z,71.89
2018-12-16T00:28:20.965Z,72.02
2018-12-16T00:29:24.302Z,72.40
2018-12-16T00:30:27.998Z,71.98
2018-12-16T00:31:31.316Z,72.04
2018-12-16T00:32:36.214Z,72.68
2018-12-16T00:33:40.775Z,71.98
2018-12-16T00:34:44.026Z,72.11
2018-12-16T00:35:47.602Z,71.86
2018-12-16T00:36:51.742Z,72.36
2018-12-16T00:37:54.843Z,71.93
2018-12-16T00:38:57.578Z,72.22
2018-12-16T00:40:01.693Z,72.44
2018-12-16T00:41:06.083Z,72.54
2018-12-16T00:42:11.029Z,72.18
2018-12-16T00:43:13.872Z,72.06
2018-12-16T00:44:18.323Z,72.11
2018-12-16T00:45:22.121Z,72.04
2018-12-16T00:46:25.795Z,72.58
2018-12-16T00:47:28.589Z,72.05
2018-12-16T00:48:34.734Z,72.65
2018-12-16T00:49:37.564Z,72.29
2018-12-16T00:50:40.769Z,71.87
2018-12-16T00:51:45.027Z,72.15
2018-12-16T00:52:47.900Z,72.32
2018-12-16T00:53:51.598Z,72.62
2018-12-16T00:54:54.980Z,72.65
2018-12-16T00:55:58.341Z,72.92
2018-12-16T00:57:01.260Z,72.37
2018-12-16T00:58:04.671Z,72.52
2018-12-16T00:59:07.569Z,72.69
2018-12-16T01:00:13.658Z,72.67
2018-12-16T01:01:17.870Z,73.00
2018-12-16T01:02:26.365Z,72.33
2018-12-16T01:03:29.380Z,72.14
2018-12-16T01:04:32.358Z,73.12
2018-12-16T01:05:35.585Z,72.63
2018-12-16T01:06:38.478Z,72.67
2018-12-16T01:07:41.728Z,72.75
2018-12-16T01:08:44.737Z,72.30
2018-12-16T01:09:49.545Z,72.98
2018-12-16T01:10:52.477Z,73.03
2018-12-16T01:11:55.762Z,72.60
2018-12-16T01:12:59.791Z,72.86
2018-12-16T01:14:03.973Z,73.08
2018-12-16T01:15:08.578Z,73.07
2018-12-16T01:16:11.775Z,72.52
2018-12-16T01:17:14.736Z,72.84
2018-12-16T01:18:17.822Z,72.99
2018-12-16T01:19:22.979Z,72.80
2018-12-16T01:20:26.383Z,73.36
2018-12-16T01:21:29.521Z,72.93
2018-12-16T01:22:32.839Z,73.34
2018-12-16T01:23:36.227Z,72.82
2018-12-16T01:24:39.755Z,73.01
2018-12-16T01:25:42.835Z,73.54
2018-12-16T01:26:47.214Z,73.49
2018-12-16T01:27:50.782Z,72.74
2018-12-16T01:28:53.872Z,73.31
2018-12-16T01:29:56.649Z,73.63
2018-12-16T01:30:59.554Z,73.07
2018-12-16T01:32:03.153Z,73.51
2018-12-16T01:33:07.485Z,73.18
2018-12-16T01:34:10.666Z,73.14
2018-12-16T01:35:14.953Z,73.45
2018-12-16T01:36:17.790Z,72.89
2018-12-16T01:37:20.898Z,72.77
2018-12-16T01:38:23.793Z,73.53
2018-12-16T01:39:27.017Z,73.83
2018-12-16T01:40:29.972Z,73.11
2018-12-16T01:41:32.963Z,73.40
2018-12-16T01:42:35.973Z,73.38
2018-12-16T01:43:39.010Z,73.64
2018-12-16T01:44:42.611Z,73.49
2018-12-16T01:45:48.725Z,73.78
2018-12-16T01:46:52.176Z,73.71
2018-12-16T01:47:55.187Z,74.02
2018-12-16T01:49:01.133Z,72.96
2018-12-16T01:50:05.049Z,73.84
2018-12-16T01:51:08.105Z,73.52
2018-12-16T01:52:12.706Z,73.04
2018-12-16T01:53:15.615Z,73.73
2018-12-16T01:54:18.754Z,73.34
2018-12-16T01:55:21.775Z,73.61
2018-12-16T01:56:24.737Z,73.19
2018-12-16T01:57:28.806Z,73.83
2018-12-16T01:58:32.665Z,73.33
2018-12-16T01:59:35.552Z,73.55
2018-12-16T02:00:38.860Z,73.93
2018-12-16T02:01:46.529Z,73.33
2018-12-16T02:02:49.517Z,73.11
2018-12-16T02:03:52.983Z,73.83
2018-12-16T02:04:55.841Z,74.08
2018-12-16T02:05:58.775Z,74.02
2018-12-16T02:07:01.728Z,73.89
2018-12-16T02:08:04.943Z,74.12
2018-12-16T02:09:07.841Z,73.22
2018-12-16T02:10:11.360Z,74.19
2018-12-16T02:11:14.323Z,73.70
2018-12-16T02:12:17.366Z,73.76
2018-12-16T02:13:20.277Z,73.26
2018-12-16T02:14:23.056Z,73.82
2018-12-16T02:15:25.892Z,73.83
2018-12-16T02:16:29.008Z,73.71
2018-12-16T02:17:31.795Z,73.47
2018-12-16T02:18:34.567Z,74.23
2018-12-16T02:19:37.379Z,73.91
2018-12-16T02:20:40.143Z,74.28
2018-12-16T02:21:42.891Z,73.17
2018-12-16T02:22:45.987Z,73.25
2018-12-16T02:23:48.792Z,74.24
2018-12-16T02:24:51.507Z,73.84
2018-12-16T02:25:54.392Z,73.66
2018-12-16T02:26:57.184Z,73.86
2018-12-16T02:27:59.922Z,73.70
2018-12-16T02:29:02.998Z,74.01
2018-12-16T02:30:05.760Z,73.69
2018-12-16T02:31:08.514Z,73.44
2018-12-16T02:32:12.131Z,73.44
2018-12-16T02:33:14.925Z,74.23
2018-12-16T02:34:17.700Z,73.24
2018-12-16T02:35:20.735Z,73.15
2018-12-16T02:36:23.512Z,73.72
2018-12-16T02:37:26.270Z,73.40
2018-12-16T02:38:29.057Z,73.53
2018-12-16T02:39:31.818Z,73.31
2018-12-16T02:40:34.609Z,73.37
2018-12-16T02:41:37.670Z,73.23
2018-12-16T02:42:40.438Z,74.16
2018-12-16T02:43:43.238Z,73.15
2018-12-16T02:44:46.014Z,73.18
2018-12-16T02:45:48.774Z,73.53
2018-12-16T02:46:51.681Z,73.17
2018-12-16T02:47:54.751Z,73.37
2018-12-16T02:48:57.525Z,73.90
2018-12-16T02:50:00.315Z,73.54
2018-12-16T02:51:03.074Z,73.53
2018-12-16T02:52:05.851Z,73.12
2018-12-16T02:53:08.668Z,73.48
2018-12-16T02:54:11.710Z,73.36
2018-12-16T02:55:14.410Z,73.58
2018-12-16T02:56:17.202Z,73.50
2018-12-16T02:57:19.968Z,73.63
2018-12-16T02:58:22.727Z,73.68
2018-12-16T02:59:25.536Z,73.63
2018-12-16T03:00:28.831Z,73.62
2018-12-16T03:01:31.742Z,73.66
2018-12-16T03:02:34.611Z,73.58
2018-12-16T03:03:37.421Z,73.21
2018-12-16T03:04:40.177Z,73.61
2018-12-16T03:05:42.979Z,73.36
2018-12-16T03:06:46.046Z,73.36
2018-12-16T03:07:49.571Z,74.01
2018-12-16T03:08:52.390Z,73.41
2018-12-16T03:09:55.176Z,73.68
2018-12-16T03:10:58.904Z,74.04
2018-12-16T03:12:01.759Z,73.78
2018-12-16T03:13:04.854Z,73.44
2018-12-16T03:14:07.610Z,74.05
2018-12-16T03:15:10.418Z,73.42
2018-12-16T03:16:13.236Z,73.49
2018-12-16T03:17:16.026Z,74.00
2018-12-16T03:18:18.793Z,73.90
2018-12-16T03:19:21.903Z,73.78
2018-12-16T03:20:24.698Z,73.49
2018-12-16T03:21:27.460Z,73.51
2018-12-16T03:22:31.253Z,73.63
2018-12-16T03:23:34.706Z,73.80
2018-12-16T03:24:37.482Z,73.18
2018-12-16T03:25:40.590Z,73.68
2018-12-16T03:26:43.396Z,73.14
2018-12-16T03:27:46.323Z,73.58
2018-12-16T03:28:50.287Z,73.24
2018-12-16T03:29:53.087Z,73.74
2018-12-16T03:30:57.049Z,73.04
2018-12-16T03:32:00.146Z,73.65
2018-12-16T03:33:03.017Z,74.01
2018-12-16T03:34:07.111Z,73.60
2018-12-16T03:35:09.964Z,73.70
2018-12-16T03:36:13.344Z,73.72
2018-12-16T03:37:16.134Z,73.91
2018-12-16T03:38:19.196Z,73.57
2018-12-16T03:39:22.015Z,73.69
2018-12-16T03:40:24.814Z,73.70
2018-12-16T03:41:27.691Z,73.77
2018-12-16T03:42:30.569Z,73.68
2018-12-16T03:43:33.344Z,73.04
2018-12-16T03:44:36.531Z,74.00
2018-12-16T03:45:39.332Z,73.73
2018-12-16T03:46:42.084Z,73.12
2018-12-16T03:47:45.204Z,73.43
2018-12-16T03:48:48.200Z,73.83
2018-12-16T03:49:50.984Z,73.13
2018-12-16T03:50:54.076Z,73.67
2018-12-16T03:51:56.843Z,73.47
2018-12-16T03:52:59.607Z,73.75
2018-12-16T03:54:02.400Z,72.98
2018-12-16T03:55:05.215Z,73.29
2018-12-16T03:56:07.978Z,73.57
2018-12-16T03:57:11.087Z,73.84
2018-12-16T03:58:13.891Z,73.55
2018-12-16T03:59:17.212Z,73.17
2018-12-16T04:00:19.970Z,73.81
2018-12-16T04:01:22.767Z,73.80
2018-12-16T04:02:25.534Z,73.62
2018-12-16T04:03:28.600Z,73.03
2018-12-16T04:04:31.383Z,73.50
2018-12-16T04:05:34.172Z,73.06
2018-12-16T04:06:37.036Z,72.91
2018-12-16T04:07:39.854Z,73.34
2018-12-16T04:08:42.626Z,73.50
2018-12-16T04:09:45.713Z,73.24
2018-12-16T04:10:48.559Z,73.11
2018-12-16T04:11:51.367Z,73.98
2018-12-16T04:12:54.166Z,73.63
2018-12-16T04:13:57.407Z,73.27
2018-12-16T04:15:00.208Z,73.35
2018-12-16T04:16:03.332Z,72.97
2018-12-16T04:17:06.138Z,72.83
2018-12-16T04:18:09.012Z,73.43
2018-12-16T04:19:12.265Z,73.48
2018-12-16T04:20:15.106Z,73.67
2018-12-16T04:21:17.855Z,73.22
2018-12-16T04:22:21.210Z,72.82
2018-12-16T04:23:27.515Z,73.60
2018-12-16T04:24:28.768Z,73.75
2018-12-16T04:25:31.665Z,74.10
2018-12-16T04:26:34.495Z,73.19
2018-12-16T04:27:37.297Z,73.87
2018-12-16T04:28:40.110Z,74.81
2018-12-16T04:29:42.779Z,74.68
2018-12-16T04:30:45.567Z,74.71
2018-12-16T04:31:48.314Z,76.01
2018-12-16T04:32:51.146Z,76.64
2018-12-16T04:33:54.054Z,76.78
2018-12-16T04:34:57.198Z,77.00
2018-12-16T04:35:59.955Z,77.99
2018-12-16T04:37:06.043Z,77.99
2018-12-16T04:38:08.949Z,78.53
2018-12-16T04:39:11.875Z,79.12
2018-12-16T04:40:14.704Z,79.79
2018-12-16T04:41:17.980Z,81.11
2018-12-16T04:42:20.751Z,81.66
2018-12-16T04:43:23.569Z,81.25
2018-12-16T04:44:26.320Z,81.65
2018-12-16T04:45:29.068Z,81.85
2018-12-16T04:46:32.005Z,81.11
2018-12-16T04:47:35.418Z,81.23
2018-12-16T04:48:38.463Z,81.24
2018-12-16T04:49:41.211Z,81.88
2018-12-16T04:50:44.004Z,81.66
2018-12-16T04:51:46.770Z,81.97
2018-12-16T04:52:49.667Z,82.02
2018-12-16T04:53:52.721Z,82.22
2018-12-16T04:54:55.613Z,81.19
2018-12-16T04:55:58.441Z,81.87
2018-12-16T04:57:01.379Z,82.25
2018-12-16T04:58:04.998Z,81.53
2018-12-16T04:59:07.850Z,81.83
2018-12-16T05:00:10.876Z,81.73
2018-12-16T05:01:13.625Z,82.35
2018-12-16T05:02:16.436Z,81.47
2018-12-16T05:03:19.216Z,81.90
2018-12-16T05:04:21.981Z,82.08
2018-12-16T05:05:25.220Z,81.54
2018-12-16T05:06:28.346Z,82.01
2018-12-16T05:07:31.286Z,82.02
2018-12-16T05:08:34.145Z,81.82
2018-12-16T05:09:36.913Z,82.24
2018-12-16T05:10:39.690Z,81.57
2018-12-16T05:11:42.521Z,82.02
2018-12-16T05:12:45.494Z,82.42
2018-12-16T05:13:48.250Z,81.52
2018-12-16T05:14:51.002Z,82.59
2018-12-16T05:15:53.788Z,82.16
2018-12-16T05:16:56.554Z,81.87
2018-12-16T05:17:59.367Z,81.79
2018-12-16T05:19:02.424Z,81.89
2018-12-16T05:20:05.247Z,82.32
2018-12-16T05:21:08.011Z,82.72
2018-12-16T05:22:10.865Z,81.88
2018-12-16T05:23:13.630Z,82.44
2018-12-16T05:24:16.381Z,82.78
2018-12-16T05:25:19.514Z,82.48
2018-12-16T05:26:22.337Z,81.95
2018-12-16T05:27:25.099Z,82.19
2018-12-16T05:28:27.883Z,81.97
2018-12-16T05:29:30.702Z,81.82
2018-12-16T05:30:33.559Z,82.13
2018-12-16T05:31:36.586Z,81.24
2018-12-16T05:32:39.383Z,81.60
2018-12-16T05:33:42.166Z,82.39
2018-12-16T05:34:44.959Z,81.30
2018-12-16T05:35:47.743Z,82.51
2018-12-16T05:36:50.497Z,81.32
2018-12-16T05:37:53.567Z,81.61
2018-12-16T05:38:56.368Z,81.55
2018-12-16T05:39:59.134Z,82.51
2018-12-16T05:41:01.969Z,82.98
2018-12-16T05:42:04.740Z,82.77
2018-12-16T05:43:07.517Z,83.49
2018-12-16T05:44:10.594Z,84.22
2018-12-16T05:45:13.450Z,84.47
2018-12-16T05:46:16.158Z,84.50
2018-12-16T05:47:18.944Z,85.42
2018-12-16T05:48:21.731Z,86.82
2018-12-16T05:49:25.028Z,87.54
2018-12-16T05:50:28.117Z,87.82
2018-12-16T05:51:30.897Z,87.77
2018-12-16T05:52:34.981Z,88.51
2018-12-16T05:53:37.899Z,89.05
2018-12-16T05:54:40.787Z,88.23
2018-12-16T05:55:43.867Z,87.98
2018-12-16T05:56:46.948Z,88.67
2018-12-16T05:57:49.739Z,88.93
2018-12-16T05:58:52.612Z,89.09
2018-12-16T05:59:55.831Z,89.53
2018-12-16T06:00:59.091Z,89.64
2018-12-16T06:02:01.867Z,89.59
2018-12-16T06:03:04.740Z,89.87
2018-12-16T06:04:07.482Z,89.89
2018-12-16T06:05:10.538Z,89.89
2018-12-16T06:06:13.339Z,90.06
2018-12-16T06:07:16.808Z,91.08
2018-12-16T06:08:20.915Z,91.10
2018-12-16T06:09:25.939Z,91.95
2018-12-16T06:10:28.786Z,92.80
2018-12-16T06:11:31.545Z,93.03
2018-12-16T06:12:34.324Z,92.77
2018-12-16T06:13:37.489Z,93.48
2018-12-16T06:14:40.282Z,92.94
2018-12-16T06:15:43.453Z,93.08
2018-12-16T06:16:46.208Z,93.07
2018-12-16T06:17:49.358Z,92.96
2018-12-16T06:18:52.235Z,92.77
2018-12-16T06:19:55.940Z,92.63
2018-12-16T06:20:58.726Z,93.68
2018-12-16T06:22:01.807Z,93.36
2018-12-16T06:23:04.673Z,94.01
2018-12-16T06:24:07.647Z,94.03
2018-12-16T06:25:10.587Z,93.92
2018-12-16T06:26:13.418Z,94.42
2018-12-16T06:27:17.699Z,94.10
2018-12-16T06:28:21.746Z,94.17
2018-12-16T06:29:24.759Z,93.46
2018-12-16T06:45:06.995Z,93.89
2018-12-16T06:46:09.738Z,93.46
2018-12-16T06:47:12.506Z,93.99
2018-12-16T06:48:15.353Z,93.58
2018-12-16T06:49:18.547Z,93.85
2018-12-16T06:50:21.329Z,94.03
2018-12-16T06:51:24.070Z,93.21
2018-12-16T06:52:26.834Z,93.33
2018-12-16T06:53:29.625Z,92.88
2018-12-16T06:54:32.384Z,93.18
2018-12-16T06:55:35.445Z,92.65
2018-12-16T06:56:38.223Z,92.25
2018-12-16T06:57:41.053Z,92.52
2018-12-16T06:58:43.806Z,91.23
2018-12-16T06:59:46.538Z,91.79
2018-12-16T07:00:49.962Z,91.85
2018-12-16T07:01:53.060Z,92.55
2018-12-16T07:02:56.616Z,91.94
2018-12-16T07:03:59.399Z,91.95
2018-12-16T07:05:02.284Z,90.95
2018-12-16T07:06:05.113Z,90.82
2018-12-16T07:07:07.933Z,91.51
2018-12-16T07:08:11.048Z,91.17
2018-12-16T07:09:13.859Z,91.28
2018-12-16T07:10:16.649Z,90.99
2018-12-16T07:11:19.451Z,90.92
2018-12-16T07:12:22.289Z,90.31
2018-12-16T07:13:25.080Z,89.58
2018-12-16T07:14:28.193Z,89.44
2018-12-16T07:15:30.955Z,89.59
2018-12-16T07:16:33.782Z,89.44
2018-12-16T07:17:36.576Z,89.04
2018-12-16T07:18:39.356Z,89.17
2018-12-16T07:19:42.143Z,88.56
2018-12-16T07:20:45.257Z,89.27
2018-12-16T07:21:48.820Z,88.21
2018-12-16T07:22:51.592Z,88.63
2018-12-16T07:23:54.358Z,88.07
2018-12-16T07:24:57.375Z,87.67
2018-12-16T07:26:00.191Z,88.23
2018-12-16T07:27:03.320Z,87.70
2018-12-16T07:28:06.059Z,87.98
2018-12-16T07:29:08.879Z,87.15
2018-12-16T07:30:12.607Z,87.81
2018-12-16T07:31:15.438Z,87.50
2018-12-16T07:32:18.255Z,87.40
2018-12-16T07:33:21.561Z,86.91
2018-12-16T07:34:24.427Z,87.04
2018-12-16T07:35:27.259Z,87.49
2018-12-16T07:36:31.638Z,87.17
2018-12-16T07:37:35.444Z,86.96
2018-12-16T07:38:38.243Z,87.05
2018-12-16T07:39:41.327Z,87.17
2018-12-16T07:40:44.232Z,87.16
2018-12-16T07:41:48.360Z,86.67
2018-12-16T07:42:51.223Z,87.74
2018-12-16T07:43:54.047Z,87.03
2018-12-16T07:44:56.883Z,87.25
2018-12-16T07:46:00.115Z,86.72
2018-12-16T07:47:06.505Z,87.06
2018-12-16T07:48:09.804Z,87.19
2018-12-16T07:49:12.619Z,86.93
2018-12-16T07:50:15.425Z,87.76
2018-12-16T07:51:18.224Z,87.57
2018-12-16T07:52:21.407Z,87.32
2018-12-16T07:53:24.177Z,86.69
2018-12-16T07:54:26.975Z,86.70
2018-12-16T07:55:29.776Z,86.97
2018-12-16T07:56:34.298Z,86.77
2018-12-16T07:57:38.349Z,87.52
2018-12-16T07:58:43.165Z,87.48
2018-12-16T07:59:47.744Z,87.21
2018-12-16T08:00:51.549Z,87.43
2018-12-16T08:01:54.461Z,87.51
2018-12-16T08:02:57.675Z,87.39
2018-12-16T08:04:00.472Z,86.68
2018-12-16T08:05:04.073Z,86.48
2018-12-16T08:06:06.904Z,86.40
2018-12-16T08:07:09.901Z,86.75
2018-12-16T08:08:12.808Z,87.35
2018-12-16T08:09:16.663Z,87.29
2018-12-16T08:10:19.731Z,86.26
2018-12-16T08:11:23.063Z,86.97
2018-12-16T08:12:25.890Z,86.96
2018-12-16T08:13:28.722Z,87.46
2018-12-16T08:14:31.557Z,86.99
2018-12-16T08:15:34.341Z,87.26
2018-12-16T08:16:37.412Z,86.53
2018-12-16T08:17:40.590Z,87.41
2018-12-16T08:18:43.734Z,87.28
2018-12-16T08:19:46.660Z,86.71
2018-12-16T08:20:49.563Z,86.62
2018-12-16T08:21:52.925Z,87.44
2018-12-16T08:22:55.703Z,87.53
2018-12-16T08:23:58.872Z,87.02
2018-12-16T08:25:01.626Z,87.29
2018-12-16T08:26:09.318Z,87.81
2018-12-16T08:27:14.873Z,88.04
2018-12-16T08:28:18.922Z,87.04
2018-12-16T08:29:21.713Z,86.87
2018-12-16T08:31:39.401Z,87.62
2018-12-16T08:32:42.186Z,86.98
2018-12-16T08:33:47.492Z,87.60
2018-12-16T08:34:51.234Z,87.18
2018-12-16T08:35:54.086Z,87.14
2018-12-16T08:36:57.377Z,87.67
2018-12-16T08:38:00.232Z,87.06
2018-12-16T08:39:03.071Z,87.40
2018-12-16T08:40:09.099Z,87.85
2018-12-16T08:41:13.687Z,88.00
2018-12-16T08:42:17.942Z,86.81
2018-12-16T08:43:21.997Z,87.90
2018-12-16T08:44:25.839Z,87.27
2018-12-16T08:45:28.647Z,87.24
2018-12-16T08:46:31.381Z,87.18
2018-12-16T08:47:34.804Z,87.30
2018-12-16T08:48:37.976Z,87.85
2018-12-16T08:49:47.393Z,87.41
2018-12-16T08:50:50.152Z,87.23
2018-12-16T08:51:52.944Z,87.23
2018-12-16T08:52:58.684Z,87.52
2018-12-16T08:54:01.458Z,87.30
2018-12-16T08:55:06.076Z,87.47
2018-12-16T08:56:09.696Z,87.24
2018-12-16T08:57:12.456Z,87.39
2018-12-16T08:58:15.237Z,87.46
2018-12-16T08:59:19.396Z,86.92
2018-12-16T09:00:22.151Z,86.98
2018-12-16T09:01:26.734Z,87.36
2018-12-16T09:02:29.891Z,87.80
2018-12-16T09:03:32.764Z,87.33
2018-12-16T09:04:36.107Z,87.53
2018-12-16T09:05:39.489Z,87.16
2018-12-16T09:06:42.245Z,87.48
2018-12-16T09:07:45.970Z,87.32
2018-12-16T09:08:50.435Z,87.49
2018-12-16T09:09:58.499Z,87.36
2018-12-16T09:11:02.281Z,87.44
2018-12-16T09:12:06.972Z,87.19
2018-12-16T09:13:09.715Z,87.90
2018-12-16T09:14:12.521Z,87.96
2018-12-16T09:15:15.676Z,87.64
2018-12-16T09:16:21.678Z,87.57
2018-12-16T09:17:25.914Z,87.40
2018-12-16T09:18:29.926Z,87.59
2018-12-16T09:19:33.107Z,87.62
2018-12-16T09:20:35.972Z,87.01
2018-12-16T09:21:39.328Z,87.67
2018-12-16T09:22:42.131Z,87.57
2018-12-16T09:23:44.906Z,86.91
2018-12-16T09:24:48.067Z,86.68
2018-12-16T09:25:50.952Z,86.92
2018-12-16T09:26:54.285Z,86.91
2018-12-16T09:27:58.625Z,86.97
2018-12-16T09:29:02.449Z,86.82
2018-12-16T09:30:08.529Z,86.95
2018-12-16T09:31:12.354Z,86.85
2018-12-16T09:32:15.609Z,87.55
2018-12-16T09:33:19.368Z,87.67
2018-12-16T09:34:22.701Z,87.71
2018-12-16T09:35:25.630Z,87.65
2018-12-16T09:36:28.743Z,87.77
2018-12-16T09:37:31.996Z,87.33
2018-12-16T09:38:36.057Z,88.33
2018-12-16T09:39:39.696Z,87.44
2018-12-16T09:40:43.148Z,87.51
2018-12-16T09:41:45.933Z,87.92
2018-12-16T09:42:49.466Z,87.66
2018-12-16T09:43:53.053Z,88.29
2018-12-16T09:44:57.118Z,87.42
2018-12-16T09:46:01.450Z,87.93
2018-12-16T09:47:06.136Z,87.91
2018-12-16T09:48:08.963Z,87.89
2018-12-16T09:49:12.641Z,88.44
2018-12-16T09:50:17.927Z,88.57
2018-12-16T09:51:21.646Z,87.89
2018-12-16T09:52:24.780Z,88.46
2018-12-16T09:53:28.538Z,89.14
2018-12-16T09:54:31.449Z,88.34
2018-12-16T09:55:34.377Z,88.66
2018-12-16T09:56:37.234Z,88.63
2018-12-16T09:57:40.051Z,88.97
2018-12-16T09:58:44.059Z,88.13
2018-12-16T09:59:47.785Z,88.68
2018-12-16T10:00:52.115Z,88.57
2018-12-16T10:01:54.984Z,88.35
2018-12-16T10:02:58.738Z,88.40
2018-12-16T10:04:02.040Z,88.53
2018-12-16T10:05:04.910Z,88.67
2018-12-16T10:06:09.375Z,90.23
2018-12-16T10:07:14.012Z,90.38
2018-12-16T10:08:18.420Z,89.84
2018-12-16T10:09:26.636Z,90.49
2018-12-16T10:10:31.029Z,90.18
2018-12-16T10:11:35.245Z,90.27
2018-12-16T10:12:38.783Z,90.25
2018-12-16T10:13:41.588Z,90.25
2018-12-16T10:14:44.721Z,90.33
2018-12-16T10:15:47.658Z,90.49
2018-12-16T10:16:50.801Z,89.84
2018-12-16T10:17:53.660Z,89.92
2018-12-16T10:18:58.049Z,90.30
2018-12-16T10:20:01.456Z,89.69
2018-12-16T10:21:04.726Z,89.90
2018-12-16T10:22:09.219Z,91.02
2018-12-16T10:23:15.449Z,89.99
2018-12-16T10:24:19.269Z,90.35
2018-12-16T10:25:24.037Z,90.54
2018-12-16T10:26:28.716Z,91.00
2018-12-16T10:27:31.771Z,91.06
2018-12-16T10:28:34.966Z,90.42
2018-12-16T10:29:40.394Z,90.38
2018-12-16T10:30:44.584Z,90.23
2018-12-16T10:31:48.319Z,90.00
2018-12-16T10:32:52.662Z,90.44
2018-12-16T10:33:56.390Z,90.44
2018-12-16T10:34:59.257Z,90.02
2018-12-16T10:36:02.209Z,89.94
2018-12-16T10:37:05.116Z,89.99
2018-12-16T10:38:10.112Z,90.25
2018-12-16T10:39:13.016Z,89.61
2018-12-16T10:40:16.932Z,90.23
2018-12-16T10:41:20.042Z,89.97
2018-12-16T10:42:24.182Z,89.90
2018-12-16T10:43:27.172Z,90.07
2018-12-16T10:44:30.423Z,90.58
2018-12-16T10:45:34.997Z,90.32
2018-12-16T10:46:37.940Z,90.21
2018-12-16T10:47:41.456Z,89.90
2018-12-16T10:48:44.393Z,90.28
2018-12-16T10:49:48.005Z,90.07
2018-12-16T10:50:52.985Z,90.45
2018-12-16T10:51:55.913Z,89.79
2018-12-16T10:52:59.634Z,89.63
2018-12-16T10:54:03.897Z,90.20
2018-12-16T10:55:06.922Z,89.36
2018-12-16T10:56:10.377Z,89.88
2018-12-16T10:57:13.675Z,89.96
2018-12-16T10:58:17.503Z,89.93
2018-12-16T10:59:20.345Z,90.18
2018-12-16T11:00:29.127Z,89.38
2018-12-16T11:01:33.020Z,89.90
2018-12-16T11:02:35.876Z,89.89
2018-12-16T11:03:40.493Z,89.88
2018-12-16T11:04:43.365Z,89.52
2018-12-16T11:05:46.222Z,89.28
2018-12-16T11:06:49.264Z,89.59
2018-12-16T11:07:52.147Z,89.61
2018-12-16T11:08:58.303Z,89.85
2018-12-16T11:10:02.197Z,88.80
2018-12-16T11:11:06.073Z,89.30
2018-12-16T11:12:08.932Z,89.71
2018-12-16T11:13:11.786Z,88.84
2018-12-16T11:14:14.650Z,88.88
2018-12-16T11:15:17.522Z,88.42
2018-12-16T11:16:20.672Z,88.26
2018-12-16T11:17:23.823Z,88.55
2018-12-16T11:18:28.097Z,88.41
2018-12-16T11:19:30.920Z,89.01
2018-12-16T11:20:34.489Z,88.90
2018-12-16T11:21:37.344Z,88.78
2018-12-16T11:22:40.769Z,88.94
2018-12-16T11:23:43.565Z,88.95
2018-12-16T11:24:46.496Z,88.45
2018-12-16T11:25:56.313Z,88.66
2018-12-16T11:26:59.090Z,88.13
2018-12-16T11:28:04.513Z,88.56
2018-12-16T11:29:07.763Z,88.17
2018-12-16T11:42:50.993Z,89.86
2018-12-16T11:45:05.302Z,90.00
2018-12-16T11:46:09.795Z,89.34
2018-12-16T11:47:13.552Z,89.64
2018-12-16T11:48:17.220Z,89.17
2018-12-16T11:49:20.092Z,89.46
2018-12-16T11:50:23.478Z,89.63
2018-12-16T11:51:28.820Z,89.45
2018-12-16T11:52:32.096Z,89.84
2018-12-16T11:53:37.052Z,89.80
2018-12-16T11:54:40.343Z,89.63
2018-12-16T11:55:44.866Z,89.83
2018-12-16T11:56:47.989Z,89.49
2018-12-16T11:57:51.479Z,89.83
2018-12-16T11:58:54.292Z,89.00
2018-12-16T12:00:02.544Z,89.30
2018-12-16T12:01:06.237Z,89.07
2018-12-16T12:02:11.650Z,89.35
2018-12-16T12:03:16.088Z,89.28
2018-12-16T12:04:19.020Z,89.01
2018-12-16T12:05:22.024Z,89.54
2018-12-16T12:06:25.521Z,89.03
2018-12-16T12:07:28.488Z,89.27
2018-12-16T12:08:32.279Z,88.80
2018-12-16T12:09:36.739Z,89.08
2018-12-16T12:10:42.146Z,89.02
2018-12-16T12:11:45.933Z,88.92
2018-12-16T12:12:49.916Z,88.88
2018-12-16T12:13:55.048Z,88.68
2018-12-16T12:14:58.057Z,88.70
2018-12-16T12:16:00.927Z,89.12
2018-12-16T12:17:04.856Z,88.96
2018-12-16T12:18:09.396Z,89.20
2018-12-16T12:19:12.575Z,89.30
2018-12-16T12:20:15.397Z,88.82
2018-12-16T12:21:18.563Z,88.61
2018-12-16T12:22:21.720Z,89.07
2018-12-16T12:23:25.127Z,88.97
2018-12-16T12:24:28.480Z,88.96
2018-12-16T12:25:31.635Z,89.28
2018-12-16T12:26:34.714Z,88.88
2018-12-16T12:27:37.934Z,88.74
2018-12-16T12:28:40.992Z,88.98
2018-12-16T12:29:43.838Z,89.23
2018-12-16T12:30:47.114Z,89.32
2018-12-16T12:31:50.283Z,88.83
2018-12-16T12:32:53.186Z,89.07
2018-12-16T12:33:56.689Z,89.01
2018-12-16T12:34:59.669Z,89.10
2018-12-16T12:36:02.858Z,88.66
2018-12-16T12:37:06.571Z,89.13
2018-12-16T12:38:09.839Z,89.11
2018-12-16T12:39:12.807Z,88.84
2018-12-16T12:40:15.627Z,88.52
2018-12-16T12:41:20.524Z,88.36
2018-12-16T12:42:23.460Z,88.57
2018-12-16T12:43:26.381Z,89.04
2018-12-16T12:44:29.490Z,88.96
2018-12-16T12:45:33.960Z,88.75
2018-12-16T12:46:37.347Z,88.73
2018-12-16T12:47:41.776Z,88.94
2018-12-16T12:48:46.240Z,88.96
2018-12-16T12:49:49.868Z,88.29
2018-12-16T12:50:53.821Z,88.64
2018-12-16T12:51:58.251Z,88.50
2018-12-16T12:53:01.088Z,88.34
2018-12-16T12:54:03.965Z,88.08
2018-12-16T12:55:06.691Z,88.35
2018-12-16T12:56:09.632Z,88.12
2018-12-16T12:57:14.927Z,88.21
2018-12-16T13:03:51.335Z,88.59
2018-12-16T13:04:54.970Z,88.30
2018-12-16T13:05:59.613Z,88.23
2018-12-16T13:07:02.575Z,87.95
2018-12-16T13:08:06.393Z,88.39
2018-12-16T13:09:12.373Z,88.39
2018-12-16T13:10:15.189Z,88.60
2018-12-16T13:11:18.023Z,88.92
2018-12-16T13:12:23.260Z,88.52
2018-12-16T13:13:27.388Z,88.66
2018-12-16T13:14:30.303Z,88.59
2018-12-16T13:15:33.607Z,88.79
2018-12-16T13:16:37.669Z,89.16
2018-12-16T13:17:41.175Z,89.09
2018-12-16T13:18:44.051Z,89.48
2018-12-16T13:19:48.676Z,89.70
2018-12-16T13:20:53.291Z,89.69
2018-12-16T13:21:59.850Z,90.42
2018-12-16T13:23:03.889Z,89.99
2018-12-16T13:24:06.717Z,90.11
2018-12-16T13:25:10.362Z,90.82
2018-12-16T13:26:14.036Z,90.70
2018-12-16T13:27:16.969Z,91.46
2018-12-16T13:28:20.541Z,91.64
2018-12-16T13:29:23.678Z,91.37
2018-12-16T13:30:26.482Z,91.47
2018-12-16T13:31:29.320Z,91.27
2018-12-16T13:32:32.123Z,90.99
2018-12-16T13:33:35.432Z,91.41
2018-12-16T13:34:38.896Z,91.81
2018-12-16T13:35:41.724Z,91.63
2018-12-16T13:36:44.570Z,91.69
2018-12-16T13:37:48.237Z,91.94
2018-12-16T13:38:52.365Z,92.31
2018-12-16T13:39:56.657Z,92.25
2018-12-16T13:41:00.811Z,91.70
2018-12-16T13:42:04.752Z,91.55
2018-12-16T13:43:08.061Z,91.77
2018-12-16T13:44:11.325Z,92.08
2018-12-16T13:45:14.238Z,92.24
2018-12-16T13:46:17.113Z,91.70
2018-12-16T13:47:20.314Z,91.34
2018-12-16T13:48:23.239Z,91.54
2018-12-16T13:49:26.273Z,92.09
2018-12-16T13:50:31.249Z,92.00
2018-12-16T13:51:36.576Z,91.79
2018-12-16T13:52:39.755Z,91.92
2018-12-16T13:53:42.561Z,91.81
2018-12-16T13:54:49.364Z,92.37
2018-12-16T13:55:52.238Z,92.22
2018-12-16T13:56:55.999Z,92.30
2018-12-16T13:58:00.539Z,92.22
2018-12-16T13:59:04.354Z,92.28
2018-12-16T14:00:07.257Z,92.31
2018-12-16T14:01:11.810Z,92.48
2018-12-16T14:02:16.252Z,92.02
2018-12-16T14:03:20.637Z,91.84
2018-12-16T14:04:23.967Z,92.40
2018-12-16T14:05:28.810Z,92.54
2018-12-16T14:06:32.065Z,92.84
2018-12-16T14:07:35.609Z,92.49
2018-12-16T14:08:38.491Z,92.60
2018-12-16T14:09:41.377Z,92.55
2018-12-16T14:10:44.537Z,92.38
2018-12-16T14:11:48.430Z,93.07